• Join FlightAware (Why Join?)
  • Login
  • US Flag 
03:02AM EDT


 

Airport Tracker/Info


-or-


 

Live Flight TrackerFlight Track Log ✈ ASQ4209 ✈ 17-Jul-2013 ✈ KIAH - KBTR

Flight Track Log - Related Links

Times and Time Zones

All times are in EDT time to prevent confusion due to time zone crossing. See the ASQ4209 flight status page for this flight to view local times or setup timezone preferences in your user account.

Time Position Orientation Groundspeed Altitude Reporting Facility
EDT Latitude Longitude Course Direction KTS MPH feet Rate Location/Type
08:29PM 29.9617 -95.3436 105° East 150 173 800  Level Houston Center
08:30PM 29.9550 -95.3156 105° East 179 206 1,700 1,380 Climbing Houston Center
08:31PM 29.9492 -95.2769 100° East 197 227 2,500 1,320 Climbing Houston Center
08:32PM 29.9439 -95.2003 95° East 241 277 4,000 780 Climbing Houston Center
08:33PM 29.9486 -95.1250 86° East 236 272 4,100 1,200 Climbing Houston Center
08:34PM 29.9542 -95.0453 85° East 246 283 6,600 2,280 Climbing Houston Center
08:35PM 29.9600 -94.9642 85° East 252 290 8,800 1,800 Climbing Houston Center
08:36PM 29.9669 -94.8758 85° East 271 312 10,400 1,380 Climbing Houston Center
08:37PM 29.9750 -94.7539 86° East 319 367 11,700 1,260 Climbing Houston Center
08:38PM 29.9825 -94.6450 85° East 338 389 13,100 1,260 Climbing Houston Center
08:39PM 29.9881 -94.5339 87° East 345 397 14,400 1,140 Climbing Houston Center
08:40PM 29.9925 -94.4194 87° East 353 406 15,500 1,080 Climbing Houston Center
08:41PM 29.9967 -94.3042 88° East 360 414 16,700 1,020 Climbing Houston Center
08:42PM 30.0100 -94.1894 82° East 361 415 17,600 780 Climbing Houston Center
08:43PM 30.0242 -94.0725 82° East 367 422 18,300 840 Climbing Houston Center
08:44PM 30.0253 -93.9269 89° East 377 434 19,400 1,200 Climbing Houston Center
08:45PM 30.0267 -93.8075 89° East 378 435 20,800 1,320 Climbing Houston Center
08:46PM 30.0272 -93.6892 90° East 373 429 22,200 1,020 Climbing Houston Center
08:47PM 30.0267 -93.5719 90° East 371 427 23,000 360 Climbing Houston Center
08:48PM 30.0328 -93.4472 87° East 395 455 23,000  Level Houston Center
08:49PM 30.0661 -93.2950 76° East 412 474 23,000  Level Houston Center
08:50PM 30.0953 -93.1633 76° East 425 489 23,000  Level Houston Center
08:51PM 30.1239 -93.0303 76° East 430 495 23,000  Level Houston Center
08:52PM 30.1531 -92.8964 76° East 431 496 23,000  Level Houston Center
08:53PM 30.1825 -92.7597 76° East 437 503 23,000  Level Houston Center
08:54PM 30.2117 -92.6247 76° East 437 503 23,000  Level Houston Center
08:55PM 30.2406 -92.4944 76° East 426 490 23,000  Level Houston Center
08:56PM 30.2700 -92.3403 77° East 413 475 23,000 -1,140 Level Houston Center
08:57PM 30.2958 -92.2169 76° East 416 479 20,700 -2,580 Descending Houston Center
08:58PM 30.3236 -92.0883 76° East 416 479 17,800 -3,180 Descending Houston Center
08:59PM 30.3492 -91.9672 76° East 395 455 14,300 -3,360 Descending Houston Center
09:00PM 30.3756 -91.8353 77° East 356 410 11,000 -1,620 Descending Houston Center
09:02PM 30.3978 -91.7261 77° East 352 405 11,000 -180 Level Houston Center
09:03PM 30.4158 -91.6311 78° East 339 390 10,700 -840 Descending Houston Center
09:04PM 30.4086 -91.5394 95° East 287 330 9,400 -1,800 Descending Houston Center
09:05PM 30.4039 -91.4556 94° East 263 303 7,100 -2,520 Descending Houston Center
09:06PM 30.4058 -91.3708 88° East 246 283 4,300 -2,100 Descending Houston Center
09:07PM 30.4308 -91.2953 69° East 226 260 2,900 -1,380 Descending Houston Center